Talybont, United Kingdom
Current Conditions -  °F | °C
As of 11:50 PM on Thursday 27 Nov 2014 (Local Time) from EGOV Reporting Station
Clear Clear  
Wind Chill: 41°   Ceiling: Unl
Heat Index: 45°   Visibility: 6mi
Dew Point: 39°   Wind: 7mph
Humidity: 81%   Direction: 50°NE
Pressure: 29.5"   Gusts: NA
Location:  52.77°N, 4.09°W
Report Text: EGOV 272350Z 05006KT CAVOK 07/04 Q0999 BLU
Loading
Personal Weather Stations






























Interactive Weather Map New forecast layout! Learn more

10-Day Weather Forecast

Advertisements
Track Severe Weather on mobile